Terminal Aerodrome Forecast
Issued by NWS Louisville, KY

Home | Current Version | Previous Version | Text Only | Print | Product List | Glossary On
Versions: 1 2 3 4 5 6 7 8 9 10 11 12 13
000
FTUS43 KLMK 042341
TAFBWG
TAF
KBWG 042341Z 0500/0524 VRB05KT P6SM SCT040 BKN250
     FM050400 VRB03KT 6SM BR SCT040 BKN200
      TEMPO 0510/0513 5SM BR
     FM051300 VRB04KT P6SM SCT050 BKN180
     FM052200 10005KT P6SM VCTS BKN050CB BKN120=

USA.gov is the U.S. government's official web portal to all federal, state and local government web resources and services.